Peoples, Kentucky
Current Conditions -  °F | °C
As of 12:53 PM on Friday 28 Nov 2014 (Local Time) from KLOZ Reporting Station
Overcast Overcast  
Wind Chill: 28°   Ceiling: 12000
Heat Index: 33°   Visibility: 10mi
Dew Point: 17°   Wind: 6mph
Humidity: 52%   Direction: 200°SSW
Pressure: 30.33"   Gusts: NA
Location:  37.29°N, 84.05°W
Report Text: KLOZ 281753Z AUTO 20005KT 10SM OVC120 01/M08 A3033 RMK AO2 SLP281 T00061083 10006 21033 58026
Loading
Personal Weather Stations






























Interactive Weather Map New forecast layout! Learn more

10-Day Weather Forecast

Advertisements
Track Severe Weather on mobile